Time;durP1;ratioP1;P1;durP2;ratioP2;P2;SDS_P1;SDS_P2;PMS_P1;PMS_P2;Temp;Humidity;BMP_temperature;BMP_pressure;BME280_temperature;BME280_humidity;BME280_pressure;Samples;Min_cycle;Max_cycle;Signal;HPM_P1;HPM_P2
2021/04/01 00:01:15;;;;;;;45.15;25.70;;;;;;;7.42;54.55;101808.75;1763952;79;25707;-58
2021/04/01 00:03:47;;;;;;;43.33;24.52;;;;;;;7.34;54.27;101811.02;1774985;79;25648;-58
2021/04/01 00:06:16;;;;;;;47.25;24.65;;;;;;;7.29;54.43;101799.73;1793516;79;26491;-58
2021/04/01 00:08:44;;;;;;;54.25;25.32;;;;;;;7.25;54.69;101799.51;1789952;78;25685;-58
2021/04/01 00:11:14;;;;;;;49.15;24.80;;;;;;;7.15;54.42;101793.35;1719975;83;27590;-58
2021/04/01 00:13:43;;;;;;;43.68;23.95;;;;;;;7.11;54.58;101790.94;1730764;82;25756;-58
2021/04/01 00:16:11;;;;;;;42.93;23.38;;;;;;;7.10;55.20;101799.45;1784882;79;25606;-58
2021/04/01 00:18:40;;;;;;;41.08;22.90;;;;;;;6.97;54.99;101790.39;1767154;79;25750;-58
2021/04/01 00:21:08;;;;;;;46.35;22.98;;;;;;;6.93;55.06;101795.55;1779418;79;26075;-58
2021/04/01 00:23:36;;;;;;;50.17;24.52;;;;;;;6.82;55.43;101790.78;1781459;79;27527;-58
2021/04/01 00:26:06;;;;;;;43.90;24.85;;;;;;;6.68;56.49;101795.11;1803730;79;25739;-58
2021/04/01 00:28:34;;;;;;;48.17;23.90;;;;;;;6.57;56.10;101788.16;1810742;78;25694;-58
2021/04/01 00:31:02;;;;;;;46.75;23.98;;;;;;;6.51;57.21;101789.35;1804615;79;25709;-58
2021/04/01 00:33:30;;;;;;;40.92;23.80;;;;;;;6.44;56.40;101788.45;1779546;79;25983;-58
2021/04/01 00:35:58;;;;;;;39.20;21.65;;;;;;;6.40;56.43;101790.44;1797989;79;28426;-58
2021/04/01 00:38:26;;;;;;;41.15;23.65;;;;;;;6.32;56.58;101782.83;1808535;79;26078;-58
2021/04/01 00:40:56;;;;;;;36.83;21.93;;;;;;;6.25;57.10;101788.97;1807004;78;25714;-58
2021/04/01 00:43:25;;;;;;;36.25;20.95;;;;;;;6.16;57.26;101781.45;1809724;78;26500;-57
2021/04/01 00:45:53;;;;;;;37.38;20.72;;;;;;;6.13;56.95;101783.43;1737273;81;25646;-58
2021/04/01 00:48:21;;;;;;;38.35;20.85;;;;;;;6.18;57.01;101778.23;1739429;82;28597;-58
2021/04/01 00:50:50;;;;;;;39.40;19.95;;;;;;;6.22;56.92;101778.92;1748384;80;26084;-58
2021/04/01 00:53:18;;;;;;;42.75;20.62;;;;;;;6.28;56.55;101773.23;1779814;79;25691;-57
2021/04/01 00:55:46;;;;;;;36.75;21.00;;;;;;;6.33;56.59;101772.98;1803704;79;26497;-58
2021/04/01 00:58:16;;;;;;;45.50;21.05;;;;;;;6.35;56.63;101767.97;1808679;79;25651;-58
2021/04/01 01:00:46;;;;;;;33.40;19.57;;;;;;;6.39;56.78;101769.52;1807845;79;27530;-57
2021/04/01 01:03:14;;;;;;;38.78;20.45;;;;;;;6.44;56.66;101771.93;1810873;79;26276;-57
2021/04/01 01:05:42;;;;;;;41.53;19.48;;;;;;;6.47;56.90;101769.55;1788058;78;25711;-58
2021/04/01 01:08:10;;;;;;;36.93;20.30;;;;;;;6.46;56.76;101762.48;1779526;79;25697;-58
2021/04/01 01:10:38;;;;;;;35.40;19.02;;;;;;;6.46;56.94;101758.02;1779318;79;25715;-58
2021/04/01 01:13:06;;;;;;;42.70;20.05;;;;;;;6.49;56.76;101756.98;1806637;79;27537;-58
2021/04/01 01:15:34;;;;;;;33.70;18.35;;;;;;;6.50;56.95;101756.88;1808972;78;25644;-58
2021/04/01 01:18:03;;;;;;;28.15;17.20;;;;;;;6.51;56.96;101754.59;1809088;79;25687;-58
2021/04/01 01:20:32;;;;;;;33.25;18.57;;;;;;;6.52;56.76;101763.01;1795607;79;25714;-58
2021/04/01 01:23:07;;;;;;;35.80;19.07;;;;;;;6.52;56.86;101756.81;1791450;79;25721;-58
2021/04/01 01:25:36;;;;;;;38.20;17.98;;;;;;;6.51;57.06;101749.25;1770007;80;27524;-58
2021/04/01 01:28:05;;;;;;;27.55;16.05;;;;;;;6.50;57.06;101747.52;1762372;80;26082;-57
2021/04/01 01:30:34;;;;;;;30.95;17.55;;;;;;;6.53;57.63;101751.38;1764479;79;26101;-57
2021/04/01 01:33:06;;;;;;;31.00;17.50;;;;;;;6.48;57.24;101748.56;1774910;80;25780;-58
2021/04/01 01:35:37;;;;;;;33.75;17.17;;;;;;;6.46;57.26;101741.98;1770561;80;25717;-58
2021/04/01 01:38:09;;;;;;;27.77;17.75;;;;;;;6.46;57.21;101740.64;1788938;80;28380;-58
2021/04/01 01:40:38;;;;;;;29.18;17.42;;;;;;;6.48;57.04;101741.42;1787022;80;25699;-58
2021/04/01 01:43:11;;;;;;;28.65;17.23;;;;;;;6.53;57.56;101736.67;1762577;80;25707;-58
2021/04/01 01:45:41;;;;;;;33.92;17.42;;;;;;;6.49;57.61;101743.61;1775422;80;25778;-58
2021/04/01 01:48:11;;;;;;;31.60;15.98;;;;;;;6.47;57.16;101739.70;1801641;79;25655;-58
2021/04/01 01:50:40;;;;;;;29.12;15.78;;;;;;;6.46;57.04;101738.42;1774911;79;27638;-58
2021/04/01 01:53:10;;;;;;;34.53;17.60;;;;;;;6.46;56.91;101733.95;1765450;79;25929;-58
2021/04/01 01:55:39;;;;;;;48.02;21.00;;;;;;;6.46;56.92;101732.63;1763223;80;25593;-58
2021/04/01 01:58:08;;;;;;;34.60;20.02;;;;;;;6.46;56.78;101730.41;1810666;78;26469;-57
2021/04/01 02:00:56;;;;;;;43.28;20.82;;;;;;;6.45;56.94;101722.88;1825368;78;25513;-58
2021/04/01 02:03:25;;;;;;;32.45;18.40;;;;;;;6.48;57.44;101727.18;1755628;81;27536;-58
2021/04/01 02:05:53;;;;;;;41.13;20.12;;;;;;;6.53;57.75;101719.30;1764448;81;26100;-58
2021/04/01 02:08:21;;;;;;;31.60;18.50;;;;;;;6.58;57.72;101718.58;1763146;81;25747;-58
2021/04/01 02:10:52;;;;;;;35.75;17.15;;;;;;;6.68;57.79;101712.70;1755623;81;26366;-58
2021/04/01 02:13:22;;;;;;;31.93;16.30;;;;;;;6.76;57.59;101716.26;1757612;81;25596;-58
2021/04/01 02:15:54;;;;;;;34.67;17.77;;;;;;;6.83;57.64;101713.16;1737822;82;28421;-58
2021/04/01 02:18:26;;;;;;;32.00;16.90;;;;;;;6.91;57.51;101710.50;1817753;78;25718;-58
2021/04/01 02:21:00;;;;;;;32.08;16.05;;;;;;;6.97;57.48;101706.12;1737887;81;25681;-58
2021/04/01 02:23:31;;;;;;;39.98;17.87;;;;;;;7.06;57.34;101713.61;1818081;78;25603;-58
2021/04/01 02:26:03;;;;;;;29.23;16.30;;;;;;;7.15;57.14;101715.74;1737941;81;25663;-58
2021/04/01 02:28:34;;;;;;;31.17;17.27;;;;;;;7.17;56.79;101708.98;1767977;81;27524;-58
2021/04/01 02:31:09;;;;;;;43.35;18.95;;;;;;;7.18;56.61;101709.34;1729743;82;26177;-58
2021/04/01 02:33:39;;;;;;;40.92;20.23;;;;;;;7.18;56.40;101704.87;1819552;78;25789;-57
2021/04/01 02:36:08;;;;;;;40.60;18.95;;;;;;;7.19;56.23;101706.59;1735939;81;25711;-58
2021/04/01 02:38:36;;;;;;;44.35;24.85;;;;;;;7.20;56.02;101707.45;1739108;82;26092;-58
2021/04/01 02:41:06;;;;;;;51.85;27.13;;;;;;;7.18;55.66;101708.00;1775129;79;27520;-58
2021/04/01 02:43:34;;;;;;;43.73;23.15;;;;;;;7.09;55.42;101704.53;1788443;80;26230;-58
2021/04/01 02:46:04;;;;;;;41.60;22.42;;;;;;;7.02;55.41;101700.89;1791160;80;25753;-58
2021/04/01 02:48:34;;;;;;;41.13;22.25;;;;;;;7.00;55.57;101704.62;1793630;80;26502;-58
2021/04/01 02:51:04;;;;;;;33.15;19.15;;;;;;;6.96;55.42;101696.37;1782421;78;25743;-58
2021/04/01 02:53:32;;;;;;;34.70;17.32;;;;;;;6.87;55.31;101694.63;1781556;80;27398;-58
2021/04/01 02:56:00;;;;;;;29.35;16.90;;;;;;;6.82;55.53;101703.41;1770722;79;25722;-57
2021/04/01 02:58:28;;;;;;;25.88;13.78;;;;;;;6.74;55.59;101698.48;1786547;80;25639;-58
2021/04/01 03:00:58;;;;;;;24.72;16.20;;;;;;;6.69;55.41;101698.36;1793333;78;25742;-58
2021/04/01 03:06:05;;;;;;;25.88;15.88;;;;;;;6.54;55.56;101694.29;1833256;78;25498;-57
2021/04/01 03:08:33;;;;;;;33.00;17.65;;;;;;;6.41;55.77;101701.26;1805508;79;26070;-58
2021/04/01 03:11:01;;;;;;;32.90;16.82;;;;;;;6.32;55.99;101700.47;1803669;79;27640;-57
2021/04/01 03:13:30;;;;;;;29.25;17.50;;;;;;;6.27;56.32;101699.39;1773465;80;25737;-57
2021/04/01 03:15:58;;;;;;;24.85;16.95;;;;;;;6.19;56.36;101709.16;1773784;80;25722;-57
2021/04/01 03:18:26;;;;;;;45.67;21.80;;;;;;;6.11;56.47;101703.38;1773611;80;25679;-58
2021/04/01 03:20:54;;;;;;;37.00;18.27;;;;;;;6.04;56.46;101710.01;1793722;79;25714;-57
2021/04/01 03:23:23;;;;;;;45.67;20.12;;;;;;;5.97;56.38;101700.09;1805499;79;27541;-57
2021/04/01 03:25:51;;;;;;;35.52;18.65;;;;;;;5.96;56.39;101695.69;1805415;79;25682;-58
2021/04/01 03:28:20;;;;;;;27.20;16.27;;;;;;;5.95;56.71;101700.64;1805493;79;25647;-57
2021/04/01 03:30:55;;;;;;;32.17;16.65;;;;;;;5.93;56.46;101697.18;1805476;79;26130;-57
2021/04/01 03:33:19;;;;;;;32.70;17.48;;;;;;;5.88;57.06;101699.25;1804432;79;25753;-58
2021/04/01 03:35:47;;;;;;;33.85;15.35;;;;;;;5.78;56.91;101700.23;1793290;79;27518;-57
2021/04/01 03:38:16;;;;;;;26.93;15.60;;;;;;;5.73;57.26;101693.80;1805394;78;25695;-58
2021/04/01 03:40:44;;;;;;;33.92;16.27;;;;;;;5.69;56.99;101692.22;1805329;79;25626;-58
2021/04/01 03:43:13;;;;;;;25.92;15.13;;;;;;;5.67;57.03;101684.77;1805489;79;25763;-57
2021/04/01 03:45:42;;;;;;;25.90;15.63;;;;;;;5.59;57.17;101688.31;1805490;79;25639;-57
2021/04/01 03:48:12;;;;;;;29.72;15.08;;;;;;;5.55;57.06;101680.95;1805624;79;28569;-57
2021/04/01 03:50:40;;;;;;;34.88;16.27;;;;;;;5.57;57.37;101684.86;1790243;79;25611;-57
2021/04/01 03:53:08;;;;;;;29.52;14.90;;;;;;;5.52;57.36;101681.09;1806851;78;25717;-57
2021/04/01 03:55:38;;;;;;;30.60;17.07;;;;;;;5.51;57.84;101679.85;1792892;78;25724;-57
2021/04/01 04:09:28;;;;;;;42.05;16.40;;;;;;;5.37;58.26;101676.12;1773972;80;25641;-58
2021/04/01 04:11:45;;;;;;;36.03;17.10;;;;;;;5.33;58.51;101680.72;1761101;79;26287;-58
2021/04/01 04:14:28;;;;;;;37.28;19.50;;;;;;;5.33;58.37;101683.39;1748826;80;27507;-58
2021/04/01 04:16:49;;;;;;;40.43;19.27;;;;;;;5.36;58.53;101692.19;1741596;82;25473;-58
2021/04/01 04:19:17;;;;;;;48.48;21.73;;;;;;;5.36;58.31;101684.18;1742598;80;25731;-57
2021/04/01 04:21:45;;;;;;;50.67;20.32;;;;;;;5.39;58.38;101681.36;1742740;82;25726;-58
2021/04/01 04:24:14;;;;;;;40.30;19.67;;;;;;;5.44;58.08;101684.19;1742729;82;25664;-58
2021/04/01 04:26:42;;;;;;;30.52;17.30;;;;;;;5.49;57.95;101682.61;1743793;79;27520;-58
2021/04/01 04:29:10;;;;;;;34.43;16.23;;;;;;;5.54;57.98;101682.38;1808321;79;25686;-58
2021/04/01 04:31:38;;;;;;;42.43;19.90;;;;;;;5.57;58.06;101672.39;1808244;79;25622;-58
2021/04/01 04:34:06;;;;;;;31.70;15.63;;;;;;;5.63;58.14;101677.87;1785200;79;25673;-58
2021/04/01 04:36:34;;;;;;;29.42;16.55;;;;;;;5.70;57.99;101673.05;1751295;81;25689;-58
2021/04/01 04:39:03;;;;;;;32.42;15.80;;;;;;;5.74;57.93;101666.12;1766742;81;27530;-58
2021/04/01 04:41:31;;;;;;;34.53;17.30;;;;;;;5.82;57.81;101678.23;1762726;79;25664;-58
2021/04/01 04:44:00;;;;;;;38.30;19.07;;;;;;;5.84;57.71;101675.86;1706891;82;25680;-58
2021/04/01 04:46:28;;;;;;;48.95;18.05;;;;;;;5.88;57.81;101673.39;1743696;81;25751;-58
2021/04/01 04:48:56;;;;;;;34.83;17.05;;;;;;;5.91;57.53;101671.91;1770144;81;25767;-58
2021/04/01 04:51:25;;;;;;;56.60;17.65;;;;;;;5.93;57.91;101669.14;1721227;81;27543;-58
2021/04/01 04:53:53;;;;;;;82.88;19.27;;;;;;;5.97;57.98;101670.70;1734542;82;25834;-58
2021/04/01 04:56:23;;;;;;;47.85;19.80;;;;;;;6.03;57.70;101663.72;1734642;82;25744;-58
2021/04/01 04:59:10;;;;;;;40.65;15.75;;;;;;;6.11;57.59;101664.64;1773025;80;25498;-58
2021/04/01 05:06:56;;;;;;;38.20;16.02;;;;;;;6.25;57.38;101657.19;1773201;80;25675;-58
2021/04/01 05:09:24;;;;;;;31.40;15.95;;;;;;;6.32;57.40;101654.55;1773472;79;25830;-58
2021/04/01 05:11:52;;;;;;;43.05;17.50;;;;;;;6.35;57.28;101657.06;1787727;79;25687;-58
2021/04/01 05:14:20;;;;;;;36.30;16.67;;;;;;;6.40;57.60;101652.30;1808218;79;25690;-58
2021/04/01 05:16:48;;;;;;;45.75;18.23;;;;;;;6.47;57.50;101655.50;1808285;79;28469;-58
2021/04/01 05:19:17;;;;;;;40.92;17.15;;;;;;;6.49;57.60;101652.27;1808144;79;25693;-58
2021/04/01 05:22:04;;;;;;;31.00;16.10;;;;;;;6.58;57.82;101650.41;1808323;79;25679;-58
2021/04/01 05:24:27;;;;;;;41.58;17.07;;;;;;;6.68;57.42;101646.70;1803741;79;25706;-58
2021/04/01 05:32:12;;;;;;;39.70;17.85;;;;;;;6.97;57.07;101637.91;1833090;78;26634;-58
2021/04/01 05:34:41;;;;;;;41.13;17.50;;;;;;;6.97;57.07;101637.91;1805563;79;25673;-58
2021/04/01 05:37:09;;;;;;;43.33;19.45;;;;;;;7.14;56.80;101639.59;1803100;79;27497;-58
2021/04/01 05:39:37;;;;;;;29.57;17.17;;;;;;;7.23;56.77;101643.05;1732666;82;25689;-58
2021/04/01 05:42:07;;;;;;;55.20;18.10;;;;;;;7.34;56.33;101643.72;1734307;82;25469;-58
2021/04/01 05:44:40;;;;;;;37.10;17.65;;;;;;;7.39;56.12;101639.42;1736667;81;25815;-58
2021/04/01 06:01:10;;;;;;;41.77;19.17;;;;;;;7.88;55.64;101641.73;1740521;81;26306;-58
2021/04/01 06:03:41;;;;;;;43.00;19.45;;;;;;;8.00;55.48;101634.73;1733741;81;27548;-58
2021/04/01 06:06:12;;;;;;;38.53;19.87;;;;;;;8.11;55.22;101640.73;1722863;82;25733;-58
2021/04/01 06:08:49;;;;;;;40.85;19.37;;;;;;;8.23;54.98;101633.70;1746274;81;25673;-58
2021/04/01 06:11:17;;;;;;;128.47;73.28;;;;;;;8.32;54.76;101638.47;1745175;81;25458;-58
2021/04/01 06:14:08;;;;;;;42.25;22.70;;;;;;;8.45;54.68;101639.41;1729616;80;26501;-58
2021/04/01 06:16:43;;;;;;;53.15;24.95;;;;;;;8.50;54.64;101633.77;1721459;81;27550;-58
2021/04/01 06:19:16;;;;;;;54.23;25.48;;;;;;;8.63;54.52;101631.13;1730026;80;25814;-58
2021/04/01 06:21:48;;;;;;;51.70;25.77;;;;;;;8.68;54.37;101638.38;1723711;81;25735;-58
2021/04/01 06:24:28;;;;;;;59.38;26.85;;;;;;;8.84;54.40;101637.34;1750459;80;26618;-57
2021/04/01 06:27:22;;;;;;;67.90;27.93;;;;;;;8.95;53.60;101635.29;1751266;81;25692;-57
2021/04/01 06:30:16;;;;;;;64.05;28.42;;;;;;;9.10;53.63;101636.07;1767397;81;28498;-57
2021/04/01 06:32:50;;;;;;;41.95;24.18;;;;;;;9.22;53.50;101638.77;1735981;82;25817;-57
2021/04/01 06:35:33;;;;;;;59.03;24.02;;;;;;;9.37;52.71;101628.77;1683451;83;25812;-57
2021/04/01 06:41:00;;;;;;;52.88;24.67;;;;;;;9.62;52.36;101632.89;1705852;82;25671;-57
2021/04/01 06:43:36;;;;;;;53.60;21.80;;;;;;;9.77;52.26;101636.32;1716676;83;27523;-57
2021/04/01 06:46:08;;;;;;;50.83;21.48;;;;;;;9.90;51.91;101630.92;1720863;80;25726;-57
2021/04/01 06:51:39;;;;;;;45.35;20.05;;;;;;;10.20;51.06;101631.86;1815810;78;25539;-56
2021/04/01 06:54:14;;;;;;;37.95;22.07;;;;;;;10.27;50.79;101633.63;1772693;80;26051;-56
2021/04/01 06:59:44;;;;;;;47.00;22.50;;;;;;;10.46;50.63;101634.02;1785820;79;25425;-58
2021/04/01 07:02:17;;;;;;;52.27;21.73;;;;;;;10.55;50.56;101624.38;1793825;79;25713;-57
2021/04/01 07:04:47;;;;;;;55.98;20.90;;;;;;;10.75;50.43;101628.75;1773730;80;25453;-57
2021/04/01 07:07:19;;;;;;;65.60;33.00;;;;;;;10.90;50.22;101626.23;1777270;78;25721;-57
2021/04/01 07:10:18;;;;;;;80.15;44.75;;;;;;;11.12;49.80;101617.86;1696116;80;28269;-57
2021/04/01 07:12:40;;;;;;;86.10;39.48;;;;;;;11.27;49.26;101616.65;1696246;80;26012;-57
2021/04/01 07:15:14;;;;;;;64.90;37.05;;;;;;;11.44;49.16;101617.16;1773546;80;26257;-57
2021/04/01 07:17:50;;;;;;;65.17;28.45;;;;;;;11.66;49.11;101614.12;1791507;79;26137;-57
2021/04/01 07:23:47;;;;;;;56.42;28.17;;;;;;;12.04;47.91;101611.55;1833228;78;25328;-56
2021/04/01 07:48:47;;;;;;;49.73;25.90;;;;;;;13.76;45.37;101570.83;1735546;82;25762;-56
2021/04/01 07:54:16;;;;;;;48.40;23.18;;;;;;;14.15;44.84;101561.97;1767338;81;26074;-58
2021/04/01 07:56:52;;;;;;;43.20;23.98;;;;;;;14.27;44.04;101555.92;1740855;80;28471;-58
2021/04/01 07:59:34;;;;;;;50.43;22.27;;;;;;;14.42;43.75;101547.37;1711197;82;25650;-58
2021/04/01 08:02:20;;;;;;;51.45;22.98;;;;;;;14.54;43.40;101547.59;1729283;81;25590;-58
2021/04/01 08:04:42;;;;;;;47.58;21.97;;;;;;;14.65;42.34;101543.39;1752239;81;25533;-57
2021/04/01 08:07:15;;;;;;;65.42;23.35;;;;;;;14.72;43.13;101532.84;1762404;80;25608;-58
2021/04/01 08:09:48;;;;;;;51.68;21.73;;;;;;;14.91;42.01;101534.67;1774898;80;27750;-58
2021/04/01 08:12:28;;;;;;;46.18;22.13;;;;;;;15.05;42.47;101529.30;1774778;80;25672;-58
2021/04/01 08:15:08;;;;;;;56.33;21.75;;;;;;;15.20;41.34;101529.65;1746779;81;25761;-57
2021/04/01 08:17:48;;;;;;;40.88;19.95;;;;;;;15.31;41.39;101529.47;1761013;80;26169;-57
2021/04/01 08:20:29;;;;;;;47.98;22.15;;;;;;;15.43;40.44;101523.87;1746579;80;25648;-58
2021/04/01 08:23:20;;;;;;;46.88;20.45;;;;;;;15.59;39.74;101517.29;1746720;80;27531;-57
2021/04/01 08:26:01;;;;;;;43.30;20.35;;;;;;;15.74;39.77;101509.98;1728137;81;26104;-57
2021/04/01 08:36:50;;;;;;;39.83;19.80;;;;;;;16.16;38.73;101499.95;1716745;83;27963;-57
2021/04/01 08:39:23;;;;;;;43.60;17.60;;;;;;;16.26;38.51;101494.44;1720246;80;26084;-58
2021/04/01 08:42:11;;;;;;;38.33;15.72;;;;;;;16.45;37.63;101493.92;1751007;80;25490;-57
2021/04/01 08:45:32;;;;;;;27.30;14.18;;;;;;;16.58;37.51;101493.86;1747098;82;26152;-57
2021/04/01 08:48:30;;;;;;;29.20;15.98;;;;;;;16.71;36.22;101484.45;1778568;80;26572;-57
2021/04/01 08:51:10;;;;;;;37.45;15.00;;;;;;;16.85;35.60;101479.78;1770449;80;28263;-58
2021/04/01 08:54:28;;;;;;;40.88;14.83;;;;;;;16.89;35.24;101476.23;1717161;82;25806;-56
2021/04/01 08:57:11;;;;;;;35.92;14.40;;;;;;;17.04;35.64;101471.92;1721954;81;25721;-56
2021/04/01 09:00:14;;;;;;;39.38;16.23;;;;;;;17.29;34.68;101461.67;1747176;80;25868;-57
2021/04/01 09:02:52;;;;;;;35.88;16.57;;;;;;;17.43;34.17;101454.77;1721448;80;27630;-57
2021/04/01 09:05:22;;;;;;;42.50;15.18;;;;;;;17.62;33.87;101450.41;1749592;81;27599;-57
2021/04/01 09:08:00;;;;;;;31.93;15.83;;;;;;;17.76;33.10;101456.20;1749334;81;26094;-56
2021/04/01 09:10:35;;;;;;;32.23;13.95;;;;;;;17.88;33.03;101439.91;1743600;80;25672;-57
2021/04/01 09:13:15;;;;;;;31.77;16.02;;;;;;;18.09;33.63;101438.08;1784222;79;32324;-57
2021/04/01 09:15:53;;;;;;;30.17;12.95;;;;;;;18.35;32.60;101435.69;1788650;79;25769;-57
2021/04/01 09:18:30;;;;;;;27.90;14.38;;;;;;;18.57;32.16;101432.77;1760556;80;27777;-57
2021/04/01 09:21:01;;;;;;;24.80;12.20;;;;;;;18.80;31.34;101427.09;1769777;80;26228;-57
2021/04/01 09:23:38;;;;;;;27.15;13.10;;;;;;;19.01;31.71;101418.36;1733482;81;32658;-58
2021/04/01 09:26:10;;;;;;;24.70;11.30;;;;;;;19.35;30.58;101424.86;1734639;81;26139;-57
2021/04/01 09:28:42;;;;;;;34.10;14.83;;;;;;;19.68;30.02;101420.56;1724558;82;26099;-59
2021/04/01 09:31:14;;;;;;;31.33;13.95;;;;;;;20.14;30.27;101403.37;1733988;82;27475;-58
2021/04/01 09:33:43;;;;;;;25.10;13.62;;;;;;;20.86;29.55;101408.48;1720750;83;25446;-58
2021/04/01 09:36:18;;;;;;;28.57;13.43;;;;;;;21.60;28.87;101393.85;1758604;81;25458;-58
2021/04/01 09:38:53;;;;;;;35.38;11.97;;;;;;;22.23;26.47;101392.30;1721127;83;25716;-58
2021/04/01 09:41:34;;;;;;;27.67;12.75;;;;;;;22.70;26.61;101389.91;1717941;81;25655;-57
2021/04/01 09:44:09;;;;;;;45.08;13.53;;;;;;;23.17;26.20;101381.38;1722467;82;27540;-57
2021/04/01 09:47:01;;;;;;;32.33;12.07;;;;;;;23.71;25.60;101377.44;1756673;79;26339;-59
2021/04/01 09:49:49;;;;;;;26.95;12.23;;;;;;;24.28;26.17;101372.95;1702642;81;25761;-58
2021/04/01 09:52:23;;;;;;;34.40;11.55;;;;;;;25.06;25.22;101372.64;1796799;79;25758;-58
2021/04/01 09:54:59;;;;;;;24.27;10.58;;;;;;;25.77;25.26;101363.91;1770579;80;25651;-58
2021/04/01 10:03:30;;;;;;;22.73;9.70;;;;;;;26.83;22.45;101337.78;1801524;78;25707;-59
2021/04/01 10:05:59;;;;;;;17.52;8.43;;;;;;;27.20;22.50;101351.22;1805466;79;27529;-59
2021/04/01 10:08:31;;;;;;;18.60;8.73;;;;;;;27.61;20.87;101349.58;1805415;79;25801;-59
2021/04/01 10:11:10;;;;;;;19.17;8.03;;;;;;;27.74;20.52;101342.48;1805394;79;25670;-59
2021/04/01 10:13:39;;;;;;;21.42;8.53;;;;;;;27.99;20.31;101329.50;1805175;79;25837;-59
2021/04/01 10:16:23;;;;;;;15.95;7.45;;;;;;;28.31;19.43;101330.56;1805537;79;25694;-57
2021/04/01 10:18:52;;;;;;;12.90;6.35;;;;;;;28.33;18.77;101329.23;1754897;80;27561;-59
2021/04/01 10:21:21;;;;;;;18.98;6.55;;;;;;;28.03;19.30;101317.72;1754847;81;25645;-59
2021/04/01 10:23:57;;;;;;;13.45;5.97;;;;;;;28.21;18.90;101322.33;1723940;81;25697;-59
2021/04/01 10:26:42;;;;;;;13.10;5.17;;;;;;;28.62;19.23;101314.09;1755043;81;25652;-59
2021/04/01 10:29:14;;;;;;;8.78;4.92;;;;;;;29.19;18.70;101299.99;1754541;80;25737;-59
2021/04/01 10:31:46;;;;;;;22.55;5.92;;;;;;;29.59;16.85;101303.77;1754955;80;27544;-59
2021/04/01 10:34:35;;;;;;;20.05;5.78;;;;;;;29.65;17.14;101300.02;1754837;80;25610;-59
2021/04/01 10:37:10;;;;;;;10.40;4.72;;;;;;;29.80;17.00;101293.88;1754937;81;25696;-59
2021/04/01 10:39:41;;;;;;;10.45;4.50;;;;;;;30.02;17.58;101277.86;1754933;81;25755;-59
2021/04/01 10:42:12;;;;;;;26.75;5.95;;;;;;;30.57;17.24;101276.16;1784280;79;26106;-59
2021/04/01 10:44:41;;;;;;;23.52;10.35;;;;;;;30.70;15.74;101277.69;1735347;82;27792;-59
2021/04/01 10:47:15;;;;;;;12.20;5.53;;;;;;;30.62;16.16;101266.48;1739289;82;26134;-59
2021/04/01 10:49:45;;;;;;;12.65;4.47;;;;;;;30.49;16.30;101259.89;1739187;82;25744;-59
2021/04/01 10:52:14;;;;;;;15.65;4.58;;;;;;;30.72;15.70;101268.00;1710858;82;26298;-59
2021/04/01 10:54:47;;;;;;;13.80;5.10;;;;;;;30.75;16.47;101254.13;1707354;84;26189;-59
2021/04/01 10:57:29;;;;;;;;;;;;;;;31.10;16.45;101250.08;1713788;82;27526;-59
2021/04/01 11:00:13;;;;;;;9.73;4.33;;;;;;;31.18;16.04;101245.44;1692537;83;26170;-59
2021/04/01 11:02:50;;;;;;;13.38;5.08;;;;;;;31.46;15.84;101240.67;1715537;82;25737;-59
2021/04/01 11:05:23;;;;;;;13.65;5.15;;;;;;;31.71;15.73;101235.60;1710894;83;25767;-59
2021/04/01 11:08:01;;;;;;;10.80;5.47;;;;;;;31.71;15.50;101230.04;1711478;83;25695;-59
2021/04/01 11:10:32;;;;;;;16.42;5.58;;;;;;;31.72;15.09;101233.11;1711186;82;28459;-59
2021/04/01 11:13:04;;;;;;;14.98;5.40;;;;;;;31.53;15.56;101230.16;1710789;83;25730;-59
2021/04/01 11:15:41;;;;;;;13.45;4.80;;;;;;;31.79;15.63;101222.02;1710866;83;25729;-59
2021/04/01 11:18:19;;;;;;;14.03;4.40;;;;;;;32.08;14.80;101218.84;1733529;82;25659;-59
2021/04/01 11:20:53;;;;;;;6.25;3.70;;;;;;;32.02;15.18;101214.38;1740503;82;25594;-59
2021/04/01 11:23:25;;;;;;;7.62;3.77;;;;;;;32.03;14.93;101211.88;1777452;80;27518;-59
2021/04/01 11:25:58;;;;;;;34.03;4.42;;;;;;;32.15;14.89;101202.73;1777256;80;25797;-59
2021/04/01 11:28:44;;;;;;;;;;;;;;;32.13;14.79;101197.16;1780149;80;25518;-59
2021/04/01 11:31:28;;;;;;;9.80;4.62;;;;;;;32.26;15.34;101191.67;1777386;80;25558;-59
2021/04/01 11:34:00;;;;;;;12.03;3.35;;;;;;;32.16;14.80;101185.50;1777489;80;26148;-59
2021/04/01 11:36:37;;;;;;;21.75;5.22;;;;;;;32.20;15.22;101185.22;1777505;80;27500;-59
2021/04/01 11:39:03;;;;;;;17.20;3.90;;;;;;;32.24;15.13;101179.44;1776700;80;25726;-59
2021/04/01 11:41:32;;;;;;;13.83;4.27;;;;;;;32.22;14.95;101174.66;1753586;80;25706;-59
2021/04/01 11:44:01;;;;;;;10.40;4.30;;;;;;;32.16;14.66;101178.54;1752911;81;26177;-59
2021/04/01 11:46:32;;;;;;;5.62;3.12;;;;;;;32.03;14.55;101172.92;1753101;81;25764;-59
2021/04/01 11:49:01;;;;;;;18.87;3.70;;;;;;;31.59;15.17;101163.48;1753132;81;27591;-59
2021/04/01 11:51:34;;;;;;;11.15;4.10;;;;;;;31.28;15.24;101165.50;1769828;79;26205;-58
2021/04/01 11:54:06;;;;;;;;;;;;;;;30.94;15.70;101163.50;1768516;79;25798;-59
2021/04/01 11:56:38;;;;;;;18.15;4.37;;;;;;;30.35;16.07;101156.75;1766416;80;26396;-59
2021/04/01 11:59:18;;;;;;;7.40;3.75;;;;;;;30.33;16.17;101154.81;1778421;80;25469;-59
2021/04/01 12:01:55;;;;;;;9.33;4.08;;;;;;;30.18;16.52;101138.25;1788331;78;27523;-58
2021/04/01 12:04:27;;;;;;;12.18;4.10;;;;;;;30.14;16.57;101139.89;1800250;79;25691;-59
2021/04/01 12:06:56;;;;;;;11.12;3.83;;;;;;;30.21;16.34;101132.76;1811498;78;25713;-59
2021/04/01 12:09:26;;;;;;;13.70;3.90;;;;;;;30.36;16.75;101130.68;1796303;78;25647;-59
2021/04/01 12:11:54;;;;;;;9.95;5.10;;;;;;;30.42;16.29;101129.09;1797437;79;26225;-59
2021/04/01 12:14:37;;;;;;;13.35;3.52;;;;;;;30.69;15.18;101129.67;1768533;81;27594;-59
2021/04/01 12:17:07;;;;;;;7.58;3.90;;;;;;;30.37;16.05;101112.41;1777467;79;25648;-59
2021/04/01 12:19:36;;;;;;;9.60;3.55;;;;;;;30.25;16.17;101113.95;1768563;81;25798;-58
2021/04/01 12:22:13;;;;;;;12.75;4.03;;;;;;;30.69;15.76;101108.02;1768554;81;25749;-59
2021/04/01 12:24:41;;;;;;;8.90;3.83;;;;;;;31.02;15.90;101109.67;1776285;78;25727;-59
2021/04/01 12:27:10;;;;;;;15.08;3.85;;;;;;;31.63;15.95;101097.86;1800090;79;27522;-59
2021/04/01 12:29:49;;;;;;;21.55;4.25;;;;;;;32.37;14.88;101089.54;1788080;79;25656;-59
2021/04/01 12:32:29;;;;;;;9.45;3.90;;;;;;;32.64;14.47;101089.31;1741481;81;25682;-59
2021/04/01 12:35:13;;;;;;;9.00;3.52;;;;;;;32.84;13.98;101089.06;1770992;79;25709;-59
2021/04/01 12:37:44;;;;;;;14.60;4.35;;;;;;;33.03;14.02;101075.39;1777850;79;26145;-59
2021/04/01 12:40:19;;;;;;;9.80;3.90;;;;;;;33.34;14.33;101076.20;1779118;79;28431;-59
2021/04/01 12:42:49;;;;;;;5.83;3.42;;;;;;;33.79;13.21;101073.53;1819045;78;26454;-58
2021/04/01 12:45:26;;;;;;;9.90;3.87;;;;;;;33.61;13.78;101059.66;1812563;78;25637;-59
2021/04/01 12:48:14;;;;;;;8.43;3.95;;;;;;;34.00;13.41;101053.91;1768570;80;25709;-59
2021/04/01 12:50:47;;;;;;;17.90;3.72;;;;;;;34.05;13.33;101051.11;1768593;79;25700;-59
2021/04/01 12:53:17;;;;;;;;;;;;;;;34.59;12.74;101050.73;1743449;81;27517;-59
2021/04/01 12:55:57;;;;;;;13.28;4.45;;;;;;;34.54;11.80;101040.16;1792115;78;26158;-59
2021/04/01 12:58:30;;;;;;;11.45;3.90;;;;;;;34.72;12.26;101045.61;1787067;79;25639;-59
2021/04/01 13:01:06;;;;;;;25.72;6.37;;;;;;;34.98;12.45;101034.21;1761054;79;25756;-59
2021/04/01 13:03:32;;;;;;;6.55;3.52;;;;;;;35.38;12.31;101029.27;1777305;79;25719;-59
2021/04/01 13:06:03;;;;;;;10.63;3.92;;;;;;;35.49;11.71;101035.05;1768150;79;27315;-59
2021/04/01 13:08:46;;;;;;;9.48;3.62;;;;;;;35.64;12.04;101021.98;1768033;80;25785;-59
2021/04/01 13:11:03;;;;;;;8.35;3.72;;;;;;;35.83;12.04;101018.64;1814418;78;25945;-59
2021/04/01 13:13:31;;;;;;;14.60;4.15;;;;;;;36.06;12.05;101007.72;1815907;77;25671;-59